sensor_id;sensor_type;location;lat;lon;timestamp;pressure;altitude;pressure_sealevel;temperature;humidity
41078;BME280;26823;42.662;23.352;2023-04-06T00:00:13;94513.03;;;-0.10;72.49
41078;BME280;26823;42.662;23.352;2023-04-06T00:02:39;94510.06;;;-0.21;70.97
41078;BME280;26823;42.662;23.352;2023-04-06T00:05:05;94503.25;;;-0.35;70.75
41078;BME280;26823;42.662;23.352;2023-04-06T00:07:31;94503.66;;;-0.38;72.52
41078;BME280;26823;42.662;23.352;2023-04-06T00:09:58;94497.50;;;-0.32;72.15
41078;BME280;26823;42.662;23.352;2023-04-06T00:12:24;94506.59;;;-0.21;72.19
41078;BME280;26823;42.662;23.352;2023-04-06T00:14:49;94494.44;;;-0.36;71.64
41078;BME280;26823;42.662;23.352;2023-04-06T00:17:15;94494.81;;;-0.32;71.83
41078;BME280;26823;42.662;23.352;2023-04-06T00:19:40;94495.28;;;-0.35;71.82
41078;BME280;26823;42.662;23.352;2023-04-06T00:22:06;94473.59;;;-0.57;71.44
41078;BME280;26823;42.662;23.352;2023-04-06T00:24:32;94476.25;;;-0.57;72.18
41078;BME280;26823;42.662;23.352;2023-04-06T00:26:57;94479.56;;;-0.37;73.01
41078;BME280;26823;42.662;23.352;2023-04-06T00:29:22;94475.91;;;-0.42;72.69
41078;BME280;26823;42.662;23.352;2023-04-06T00:31:48;94479.34;;;-0.35;72.58
41078;BME280;26823;42.662;23.352;2023-04-06T00:34:13;94466.28;;;-0.37;72.98
41078;BME280;26823;42.662;23.352;2023-04-06T00:36:41;94485.25;;;-0.14;74.11
41078;BME280;26823;42.662;23.352;2023-04-06T00:39:06;94481.13;;;-0.10;72.91
41078;BME280;26823;42.662;23.352;2023-04-06T00:41:32;94457.97;;;-0.47;71.27
41078;BME280;26823;42.662;23.352;2023-04-06T00:43:57;94465.28;;;-0.42;71.52
41078;BME280;26823;42.662;23.352;2023-04-06T00:46:23;94470.34;;;-0.34;71.92
41078;BME280;26823;42.662;23.352;2023-04-06T00:48:48;94452.53;;;-0.34;71.66
41078;BME280;26823;42.662;23.352;2023-04-06T00:51:14;94459.84;;;-0.29;72.81
41078;BME280;26823;42.662;23.352;2023-04-06T00:53:39;94471.06;;;-0.27;71.89
41078;BME280;26823;42.662;23.352;2023-04-06T00:56:05;94434.13;;;-0.54;71.63
41078;BME280;26823;42.662;23.352;2023-04-06T00:58:31;94460.88;;;-0.30;73.69
41078;BME280;26823;42.662;23.352;2023-04-06T01:00:57;94430.88;;;-0.37;73.14
41078;BME280;26823;42.662;23.352;2023-04-06T01:03:23;94469.84;;;-0.06;72.20
41078;BME280;26823;42.662;23.352;2023-04-06T01:05:48;94475.16;;;-0.06;73.49
41078;BME280;26823;42.662;23.352;2023-04-06T01:08:14;94467.09;;;-0.18;71.92
41078;BME280;26823;42.662;23.352;2023-04-06T01:10:39;94469.63;;;-0.04;72.92
41078;BME280;26823;42.662;23.352;2023-04-06T01:13:05;94464.59;;;0.06;71.78
41078;BME280;26823;42.662;23.352;2023-04-06T01:15:32;94441.47;;;0.07;71.21
41078;BME280;26823;42.662;23.352;2023-04-06T01:17:58;94455.50;;;0.14;73.00
41078;BME280;26823;42.662;23.352;2023-04-06T01:20:24;94458.25;;;0.07;71.65
41078;BME280;26823;42.662;23.352;2023-04-06T01:22:49;94457.94;;;-0.03;71.58
41078;BME280;26823;42.662;23.352;2023-04-06T01:25:15;94447.66;;;-0.18;72.01
41078;BME280;26823;42.662;23.352;2023-04-06T01:27:40;94447.91;;;-0.20;71.94
41078;BME280;26823;42.662;23.352;2023-04-06T01:30:06;94445.31;;;-0.26;71.98
41078;BME280;26823;42.662;23.352;2023-04-06T01:32:32;94456.84;;;-0.14;72.06
41078;BME280;26823;42.662;23.352;2023-04-06T01:34:57;94447.63;;;-0.11;72.52
41078;BME280;26823;42.662;23.352;2023-04-06T01:37:23;94439.47;;;-0.17;72.57
41078;BME280;26823;42.662;23.352;2023-04-06T01:39:48;94445.75;;;0.26;72.62
41078;BME280;26823;42.662;23.352;2023-04-06T01:42:14;94424.41;;;-0.04;71.12
41078;BME280;26823;42.662;23.352;2023-04-06T01:44:39;94439.78;;;0.12;72.80
41078;BME280;26823;42.662;23.352;2023-04-06T01:47:05;94442.88;;;0.09;71.87
41078;BME280;26823;42.662;23.352;2023-04-06T01:49:30;94440.88;;;0.05;70.78
41078;BME280;26823;42.662;23.352;2023-04-06T01:51:56;94436.97;;;0.07;71.80
41078;BME280;26823;42.662;23.352;2023-04-06T01:54:21;94430.25;;;0.05;71.49
41078;BME280;26823;42.662;23.352;2023-04-06T01:56:47;94430.53;;;0.15;72.02
41078;BME280;26823;42.662;23.352;2023-04-06T01:59:14;94424.09;;;0.23;70.52
41078;BME280;26823;42.662;23.352;2023-04-06T02:01:39;94421.38;;;0.11;72.26
41078;BME280;26823;42.662;23.352;2023-04-06T02:04:05;94411.34;;;0.13;71.80
41078;BME280;26823;42.662;23.352;2023-04-06T02:06:30;94431.75;;;0.19;70.93
41078;BME280;26823;42.662;23.352;2023-04-06T02:08:56;94431.66;;;0.26;71.26
41078;BME280;26823;42.662;23.352;2023-04-06T02:11:21;94425.59;;;0.19;71.00
41078;BME280;26823;42.662;23.352;2023-04-06T02:13:47;94429.66;;;0.21;70.73
41078;BME280;26823;42.662;23.352;2023-04-06T02:16:12;94430.91;;;0.37;70.72
41078;BME280;26823;42.662;23.352;2023-04-06T02:18:38;94409.34;;;0.27;72.21
41078;BME280;26823;42.662;23.352;2023-04-06T02:21:03;94423.53;;;0.21;71.20
41078;BME280;26823;42.662;23.352;2023-04-06T02:23:29;94419.69;;;0.17;71.66
41078;BME280;26823;42.662;23.352;2023-04-06T02:25:55;94412.59;;;0.10;70.64
41078;BME280;26823;42.662;23.352;2023-04-06T02:28:20;94417.38;;;0.20;70.52
41078;BME280;26823;42.662;23.352;2023-04-06T02:30:45;94424.56;;;0.20;72.11
41078;BME280;26823;42.662;23.352;2023-04-06T02:33:11;94420.13;;;0.13;71.05
41078;BME280;26823;42.662;23.352;2023-04-06T02:35:37;94426.09;;;0.46;69.90
41078;BME280;26823;42.662;23.352;2023-04-06T02:38:02;94411.38;;;0.43;71.31
41078;BME280;26823;42.662;23.352;2023-04-06T02:40:28;94428.50;;;0.47;70.99
41078;BME280;26823;42.662;23.352;2023-04-06T02:42:53;94407.06;;;0.12;71.19
41078;BME280;26823;42.662;23.352;2023-04-06T02:45:18;94421.81;;;0.26;70.81
41078;BME280;26823;42.662;23.352;2023-04-06T02:47:44;94408.75;;;0.25;71.44
41078;BME280;26823;42.662;23.352;2023-04-06T02:50:10;94411.41;;;0.25;70.67
41078;BME280;26823;42.662;23.352;2023-04-06T02:52:35;94404.41;;;-0.07;70.97
41078;BME280;26823;42.662;23.352;2023-04-06T02:55:01;94420.34;;;0.12;70.88
41078;BME280;26823;42.662;23.352;2023-04-06T02:57:26;94410.28;;;0.14;71.47
41078;BME280;26823;42.662;23.352;2023-04-06T02:59:51;94411.72;;;-0.02;71.13
41078;BME280;26823;42.662;23.352;2023-04-06T03:02:17;94406.25;;;-0.07;72.12
41078;BME280;26823;42.662;23.352;2023-04-06T03:04:42;94403.88;;;0.03;71.54
41078;BME280;26823;42.662;23.352;2023-04-06T03:07:08;94403.97;;;-0.04;71.48
41078;BME280;26823;42.662;23.352;2023-04-06T03:09:33;94425.53;;;0.07;71.53
41078;BME280;26823;42.662;23.352;2023-04-06T03:11:59;94399.03;;;0.00;71.68
41078;BME280;26823;42.662;23.352;2023-04-06T03:14:27;94404.34;;;0.00;71.43
41078;BME280;26823;42.662;23.352;2023-04-06T03:16:52;94404.03;;;-0.10;71.93
41078;BME280;26823;42.662;23.352;2023-04-06T03:19:17;94416.06;;;0.11;71.77
41078;BME280;26823;42.662;23.352;2023-04-06T03:21:43;94415.03;;;0.30;71.78
41078;BME280;26823;42.662;23.352;2023-04-06T03:24:08;94411.72;;;0.17;71.33
41078;BME280;26823;42.662;23.352;2023-04-06T03:26:34;94414.91;;;0.07;70.84
41078;BME280;26823;42.662;23.352;2023-04-06T03:28:59;94414.53;;;0.03;71.66
41078;BME280;26823;42.662;23.352;2023-04-06T03:31:26;94413.31;;;0.18;72.30
41078;BME280;26823;42.662;23.352;2023-04-06T03:33:51;94362.38;;;-0.17;72.36
41078;BME280;26823;42.662;23.352;2023-04-06T03:36:17;94407.69;;;0.26;71.73
41078;BME280;26823;42.662;23.352;2023-04-06T03:38:42;94411.25;;;0.20;71.32
41078;BME280;26823;42.662;23.352;2023-04-06T03:41:08;94400.88;;;0.30;71.10
41078;BME280;26823;42.662;23.352;2023-04-06T03:43:33;94412.63;;;0.41;72.36
41078;BME280;26823;42.662;23.352;2023-04-06T03:45:59;94412.41;;;0.42;70.17
41078;BME280;26823;42.662;23.352;2023-04-06T03:48:24;94407.25;;;0.29;70.64
41078;BME280;26823;42.662;23.352;2023-04-06T03:50:49;94408.28;;;0.28;71.48
41078;BME280;26823;42.662;23.352;2023-04-06T03:53:15;94399.25;;;0.29;70.20
41078;BME280;26823;42.662;23.352;2023-04-06T03:55:46;94411.31;;;0.31;72.13
41078;BME280;26823;42.662;23.352;2023-04-06T03:58:12;94403.28;;;0.20;70.91
41078;BME280;26823;42.662;23.352;2023-04-06T04:00:43;94396.66;;;0.41;70.71
41078;BME280;26823;42.662;23.352;2023-04-06T04:03:09;94402.47;;;0.19;71.06
41078;BME280;26823;42.662;23.352;2023-04-06T04:05:34;94411.75;;;0.28;71.84
41078;BME280;26823;42.662;23.352;2023-04-06T04:08:00;94407.09;;;0.42;72.11
41078;BME280;26823;42.662;23.352;2023-04-06T04:10:25;94398.47;;;0.28;71.25
41078;BME280;26823;42.662;23.352;2023-04-06T04:12:51;94386.56;;;0.31;71.53
41078;BME280;26823;42.662;23.352;2023-04-06T04:15:16;94409.09;;;0.47;70.83
41078;BME280;26823;42.662;23.352;2023-04-06T04:17:41;94412.00;;;0.57;70.89
41078;BME280;26823;42.662;23.352;2023-04-06T04:20:11;94421.16;;;0.61;70.78
41078;BME280;26823;42.662;23.352;2023-04-06T04:22:37;94417.31;;;0.27;69.71
41078;BME280;26823;42.662;23.352;2023-04-06T04:25:03;94416.38;;;0.52;71.17
41078;BME280;26823;42.662;23.352;2023-04-06T04:27:28;94401.66;;;0.49;70.88
41078;BME280;26823;42.662;23.352;2023-04-06T04:29:54;94424.63;;;0.62;71.41
41078;BME280;26823;42.662;23.352;2023-04-06T04:32:19;94417.69;;;0.61;71.13
41078;BME280;26823;42.662;23.352;2023-04-06T04:34:47;94417.34;;;0.57;70.44
41078;BME280;26823;42.662;23.352;2023-04-06T04:37:12;94418.63;;;0.67;69.54
41078;BME280;26823;42.662;23.352;2023-04-06T04:39:37;94413.03;;;0.56;70.03
41078;BME280;26823;42.662;23.352;2023-04-06T04:42:03;94408.84;;;0.48;69.24
41078;BME280;26823;42.662;23.352;2023-04-06T04:44:28;94406.75;;;0.51;70.17
41078;BME280;26823;42.662;23.352;2023-04-06T04:46:54;94412.53;;;0.78;69.61
41078;BME280;26823;42.662;23.352;2023-04-06T04:49:19;94379.84;;;0.59;68.79
41078;BME280;26823;42.662;23.352;2023-04-06T04:51:45;94414.28;;;0.72;68.54
41078;BME280;26823;42.662;23.352;2023-04-06T04:54:10;94406.19;;;0.79;69.84
41078;BME280;26823;42.662;23.352;2023-04-06T04:56:36;94405.31;;;0.67;69.22
41078;BME280;26823;42.662;23.352;2023-04-06T04:59:01;94416.81;;;0.79;69.17
41078;BME280;26823;42.662;23.352;2023-04-06T05:01:26;94410.19;;;0.70;68.93
41078;BME280;26823;42.662;23.352;2023-04-06T05:03:52;94419.44;;;0.67;69.08
41078;BME280;26823;42.662;23.352;2023-04-06T05:06:17;94417.34;;;0.57;69.01
41078;BME280;26823;42.662;23.352;2023-04-06T05:08:44;94415.25;;;0.59;69.28
41078;BME280;26823;42.662;23.352;2023-04-06T05:11:10;94416.63;;;0.62;69.25
41078;BME280;26823;42.662;23.352;2023-04-06T05:13:35;94412.78;;;0.76;69.27
41078;BME280;26823;42.662;23.352;2023-04-06T05:16:01;94397.69;;;0.70;68.88
41078;BME280;26823;42.662;23.352;2023-04-06T05:18:26;94412.31;;;0.79;69.01
41078;BME280;26823;42.662;23.352;2023-04-06T05:20:52;94420.22;;;0.86;69.18
41078;BME280;26823;42.662;23.352;2023-04-06T05:23:17;94419.41;;;0.97;70.01
41078;BME280;26823;42.662;23.352;2023-04-06T05:25:43;94419.28;;;0.92;69.10
41078;BME280;26823;42.662;23.352;2023-04-06T05:28:08;94422.22;;;1.03;67.98
41078;BME280;26823;42.662;23.352;2023-04-06T05:30:34;94424.53;;;0.99;68.75
41078;BME280;26823;42.662;23.352;2023-04-06T05:33:01;94414.72;;;0.81;68.47
41078;BME280;26823;42.662;23.352;2023-04-06T05:35:26;94429.66;;;0.82;70.06
41078;BME280;26823;42.662;23.352;2023-04-06T05:37:52;94421.25;;;0.85;70.16
41078;BME280;26823;42.662;23.352;2023-04-06T05:40:17;94428.72;;;1.07;70.18
41078;BME280;26823;42.662;23.352;2023-04-06T05:42:43;94429.22;;;0.85;69.91
41078;BME280;26823;42.662;23.352;2023-04-06T05:45:09;94430.31;;;0.65;70.87
41078;BME280;26823;42.662;23.352;2023-04-06T05:47:36;94423.91;;;0.85;71.08
41078;BME280;26823;42.662;23.352;2023-04-06T05:50:02;94413.38;;;0.90;69.74
41078;BME280;26823;42.662;23.352;2023-04-06T05:52:28;94415.44;;;0.88;70.18
41078;BME280;26823;42.662;23.352;2023-04-06T05:54:53;94407.03;;;0.91;70.13
41078;BME280;26823;42.662;23.352;2023-04-06T05:57:19;94408.19;;;1.07;70.33
41078;BME280;26823;42.662;23.352;2023-04-06T05:59:44;94413.31;;;1.21;70.11
41078;BME280;26823;42.662;23.352;2023-04-06T06:02:10;94407.53;;;1.12;69.60
41078;BME280;26823;42.662;23.352;2023-04-06T06:04:35;94379.00;;;1.12;70.31
41078;BME280;26823;42.662;23.352;2023-04-06T06:07:01;94411.13;;;1.53;69.25
41078;BME280;26823;42.662;23.352;2023-04-06T06:09:27;94398.84;;;1.40;69.51
41078;BME280;26823;42.662;23.352;2023-04-06T06:11:55;94415.78;;;1.58;69.84
41078;BME280;26823;42.662;23.352;2023-04-06T06:14:21;94409.97;;;1.73;69.02
41078;BME280;26823;42.662;23.352;2023-04-06T06:16:47;94419.13;;;1.89;68.59
41078;BME280;26823;42.662;23.352;2023-04-06T06:19:12;94419.13;;;1.89;68.33
41078;BME280;26823;42.662;23.352;2023-04-06T06:21:38;94405.47;;;1.85;67.06
41078;BME280;26823;42.662;23.352;2023-04-06T06:24:03;94403.63;;;1.74;68.64
41078;BME280;26823;42.662;23.352;2023-04-06T06:26:29;94399.28;;;1.85;68.03
41078;BME280;26823;42.662;23.352;2023-04-06T06:28:55;94413.66;;;2.48;66.66
41078;BME280;26823;42.662;23.352;2023-04-06T06:31:20;94409.44;;;2.81;65.19
41078;BME280;26823;42.662;23.352;2023-04-06T06:33:48;94411.03;;;2.94;65.00
41078;BME280;26823;42.662;23.352;2023-04-06T06:36:17;94411.59;;;2.67;65.44
41078;BME280;26823;42.662;23.352;2023-04-06T06:38:42;94401.31;;;3.05;65.08
41078;BME280;26823;42.662;23.352;2023-04-06T06:41:08;94399.44;;;3.73;62.48
41078;BME280;26823;42.662;23.352;2023-04-06T06:43:33;94398.38;;;3.91;61.24
41078;BME280;26823;42.662;23.352;2023-04-06T06:45:58;94392.28;;;4.18;59.30
41078;BME280;26823;42.662;23.352;2023-04-06T06:48:24;94402.28;;;4.72;57.16
41078;BME280;26823;42.662;23.352;2023-04-06T06:50:50;94406.41;;;4.58;57.52
41078;BME280;26823;42.662;23.352;2023-04-06T06:53:15;94409.50;;;4.94;57.65
41078;BME280;26823;42.662;23.352;2023-04-06T06:55:41;94429.81;;;6.89;53.68
41078;BME280;26823;42.662;23.352;2023-04-06T06:58:09;94424.81;;;7.75;48.42
41078;BME280;26823;42.662;23.352;2023-04-06T07:00:34;94416.31;;;8.64;46.32
41078;BME280;26823;42.662;23.352;2023-04-06T07:03:00;94407.38;;;9.19;44.07
41078;BME280;26823;42.662;23.352;2023-04-06T07:05:26;94403.78;;;9.34;43.59
41078;BME280;26823;42.662;23.352;2023-04-06T07:07:52;94415.63;;;8.88;42.77
41078;BME280;26823;42.662;23.352;2023-04-06T07:10:17;94418.28;;;9.43;43.44
41078;BME280;26823;42.662;23.352;2023-04-06T07:12:43;94397.69;;;10.16;41.00
41078;BME280;26823;42.662;23.352;2023-04-06T07:15:08;94396.00;;;10.93;39.38
41078;BME280;26823;42.662;23.352;2023-04-06T07:17:34;94378.03;;;10.83;39.59
41078;BME280;26823;42.662;23.352;2023-04-06T07:20:06;94404.22;;;11.26;38.47
41078;BME280;26823;42.662;23.352;2023-04-06T07:22:32;94403.81;;;11.19;38.27
41078;BME280;26823;42.662;23.352;2023-04-06T07:24:58;94405.78;;;10.46;39.11
41078;BME280;26823;42.662;23.352;2023-04-06T07:27:23;94402.84;;;10.66;38.73
41078;BME280;26823;42.662;23.352;2023-04-06T07:29:49;94395.31;;;11.06;38.30
41078;BME280;26823;42.662;23.352;2023-04-06T07:32:14;94399.09;;;11.43;36.84
41078;BME280;26823;42.662;23.352;2023-04-06T07:34:40;94401.44;;;10.20;39.01
41078;BME280;26823;42.662;23.352;2023-04-06T07:37:05;94410.31;;;10.21;39.35
41078;BME280;26823;42.662;23.352;2023-04-06T07:39:31;94407.63;;;10.74;38.49
41078;BME280;26823;42.662;23.352;2023-04-06T07:41:56;94407.91;;;9.60;40.22
41078;BME280;26823;42.662;23.352;2023-04-06T07:44:22;94399.81;;;8.71;42.05
41078;BME280;26823;42.662;23.352;2023-04-06T07:46:47;94399.06;;;9.50;41.45
41078;BME280;26823;42.662;23.352;2023-04-06T07:49:13;94396.53;;;9.93;40.44
41078;BME280;26823;42.662;23.352;2023-04-06T07:51:39;94400.94;;;9.54;40.11
41078;BME280;26823;42.662;23.352;2023-04-06T07:54:05;94386.97;;;9.76;40.44
41078;BME280;26823;42.662;23.352;2023-04-06T07:56:30;94409.41;;;10.36;39.40
41078;BME280;26823;42.662;23.352;2023-04-06T07:58:56;94411.66;;;9.94;39.28
41078;BME280;26823;42.662;23.352;2023-04-06T08:01:23;94399.38;;;10.85;38.49
41078;BME280;26823;42.662;23.352;2023-04-06T08:03:49;94411.38;;;10.98;38.19
41078;BME280;26823;42.662;23.352;2023-04-06T08:06:15;94393.44;;;10.34;38.77
41078;BME280;26823;42.662;23.352;2023-04-06T08:08:41;94393.78;;;9.98;39.74
41078;BME280;26823;42.662;23.352;2023-04-06T08:11:07;94392.31;;;9.82;40.77
41078;BME280;26823;42.662;23.352;2023-04-06T08:13:33;94395.63;;;10.32;40.10
41078;BME280;26823;42.662;23.352;2023-04-06T08:15:59;94398.28;;;10.08;40.89
41078;BME280;26823;42.662;23.352;2023-04-06T08:18:25;94383.97;;;10.37;38.64
41078;BME280;26823;42.662;23.352;2023-04-06T08:20:50;94392.97;;;10.27;39.94
41078;BME280;26823;42.662;23.352;2023-04-06T08:23:16;94397.69;;;9.52;41.02
41078;BME280;26823;42.662;23.352;2023-04-06T08:25:41;94392.09;;;10.07;39.96
41078;BME280;26823;42.662;23.352;2023-04-06T08:28:07;94405.63;;;10.32;39.96
41078;BME280;26823;42.662;23.352;2023-04-06T08:30:34;94401.22;;;9.53;40.87
41078;BME280;26823;42.662;23.352;2023-04-06T08:33:00;94394.75;;;9.49;40.61
41078;BME280;26823;42.662;23.352;2023-04-06T08:35:26;94394.25;;;9.46;40.44
41078;BME280;26823;42.662;23.352;2023-04-06T08:37:52;94393.19;;;8.32;43.76
41078;BME280;26823;42.662;23.352;2023-04-06T08:40:17;94390.69;;;8.56;43.05
41078;BME280;26823;42.662;23.352;2023-04-06T08:42:50;94385.72;;;8.84;42.73
41078;BME280;26823;42.662;23.352;2023-04-06T08:45:16;94385.84;;;8.58;42.39
41078;BME280;26823;42.662;23.352;2023-04-06T08:47:42;94401.34;;;8.06;42.44
41078;BME280;26823;42.662;23.352;2023-04-06T08:50:08;94396.25;;;7.89;43.92
41078;BME280;26823;42.662;23.352;2023-04-06T08:52:33;94402.13;;;8.12;43.15
41078;BME280;26823;42.662;23.352;2023-04-06T08:55:00;94359.41;;;7.59;44.79
41078;BME280;26823;42.662;23.352;2023-04-06T08:57:26;94373.03;;;8.09;44.75
41078;BME280;26823;42.662;23.352;2023-04-06T08:59:52;94392.47;;;8.06;43.79
41078;BME280;26823;42.662;23.352;2023-04-06T09:02:19;94366.22;;;8.42;41.86
41078;BME280;26823;42.662;23.352;2023-04-06T09:04:49;94379.59;;;8.73;42.05
41078;BME280;26823;42.662;23.352;2023-04-06T09:07:17;94380.44;;;8.58;41.49
41078;BME280;26823;42.662;23.352;2023-04-06T09:09:43;94395.06;;;8.37;43.03
41078;BME280;26823;42.662;23.352;2023-04-06T09:12:29;94390.97;;;9.10;40.88
41078;BME280;26823;42.662;23.352;2023-04-06T09:14:55;94371.72;;;8.82;40.67
41078;BME280;26823;42.662;23.352;2023-04-06T09:17:31;94384.81;;;9.44;41.24
41078;BME280;26823;42.662;23.352;2023-04-06T09:20:02;94386.06;;;8.72;40.92
41078;BME280;26823;42.662;23.352;2023-04-06T09:22:38;94376.03;;;8.83;42.71
41078;BME280;26823;42.662;23.352;2023-04-06T09:25:05;94379.28;;;8.80;42.28
41078;BME280;26823;42.662;23.352;2023-04-06T09:27:36;94370.50;;;8.59;42.78
41078;BME280;26823;42.662;23.352;2023-04-06T09:30:08;94374.81;;;8.55;42.65
41078;BME280;26823;42.662;23.352;2023-04-06T09:32:52;94367.59;;;8.95;41.63
41078;BME280;26823;42.662;23.352;2023-04-06T09:35:19;94385.44;;;8.91;42.24
41078;BME280;26823;42.662;23.352;2023-04-06T09:37:49;94379.59;;;8.73;41.80
41078;BME280;26823;42.662;23.352;2023-04-06T09:40:15;94369.31;;;8.80;43.52
41078;BME280;26823;42.662;23.352;2023-04-06T09:42:45;94377.38;;;9.25;40.14
41078;BME280;26823;42.662;23.352;2023-04-06T09:45:12;94366.84;;;8.89;41.40
41078;BME280;26823;42.662;23.352;2023-04-06T09:47:39;94377.75;;;9.13;40.32
41078;BME280;26823;42.662;23.352;2023-04-06T09:50:07;94360.28;;;8.51;42.11
41078;BME280;26823;42.662;23.352;2023-04-06T09:52:48;94388.34;;;8.29;43.40
41078;BME280;26823;42.662;23.352;2023-04-06T09:55:23;94355.75;;;8.30;43.74
41078;BME280;26823;42.662;23.352;2023-04-06T09:57:58;94399.00;;;9.20;41.89
41078;BME280;26823;42.662;23.352;2023-04-06T10:00:28;94382.81;;;9.20;40.85
41078;BME280;26823;42.662;23.352;2023-04-06T10:05:46;94387.47;;;8.59;41.71
41078;BME280;26823;42.662;23.352;2023-04-06T10:08:16;94385.44;;;9.30;40.35
41078;BME280;26823;42.662;23.352;2023-04-06T10:10:44;94375.50;;;8.81;41.47
41078;BME280;26823;42.662;23.352;2023-04-06T10:13:11;94388.94;;;9.36;40.78
41078;BME280;26823;42.662;23.352;2023-04-06T10:15:38;94372.31;;;9.19;39.72
41078;BME280;26823;42.662;23.352;2023-04-06T10:18:03;94387.84;;;9.32;41.57
41078;BME280;26823;42.662;23.352;2023-04-06T10:25:33;94369.34;;;8.65;40.53
41078;BME280;26823;42.662;23.352;2023-04-06T10:28:05;94387.78;;;8.47;40.04
41078;BME280;26823;42.662;23.352;2023-04-06T10:30:33;94375.75;;;8.09;40.52
41078;BME280;26823;42.662;23.352;2023-04-06T10:32:58;94383.25;;;8.12;41.59
41078;BME280;26823;42.662;23.352;2023-04-06T10:35:24;94372.94;;;8.40;41.02
41078;BME280;26823;42.662;23.352;2023-04-06T10:38:02;94367.94;;;8.12;40.93
41078;BME280;26823;42.662;23.352;2023-04-06T10:40:28;94359.38;;;7.79;41.17
41078;BME280;26823;42.662;23.352;2023-04-06T10:42:55;94377.88;;;8.12;40.92
41078;BME280;26823;42.662;23.352;2023-04-06T10:45:22;94362.88;;;7.18;42.67
41078;BME280;26823;42.662;23.352;2023-04-06T10:47:49;94346.75;;;7.13;43.26
41078;BME280;26823;42.662;23.352;2023-04-06T10:50:15;94359.91;;;7.81;42.31
41078;BME280;26823;42.662;23.352;2023-04-06T10:52:44;94369.09;;;7.60;43.48
41078;BME280;26823;42.662;23.352;2023-04-06T10:55:12;94362.34;;;7.67;42.58
41078;BME280;26823;42.662;23.352;2023-04-06T10:57:38;94366.09;;;7.82;43.55
41078;BME280;26823;42.662;23.352;2023-04-06T11:00:07;94358.56;;;7.79;42.67
41078;BME280;26823;42.662;23.352;2023-04-06T11:02:34;94349.97;;;7.72;43.71
41078;BME280;26823;42.662;23.352;2023-04-06T11:05:00;94361.25;;;7.89;41.25
41078;BME280;26823;42.662;23.352;2023-04-06T11:07:27;94365.28;;;7.92;42.85
41078;BME280;26823;42.662;23.352;2023-04-06T11:09:54;94356.34;;;8.02;41.41
41078;BME280;26823;42.662;23.352;2023-04-06T11:12:24;94355.84;;;7.94;43.62
41078;BME280;26823;42.662;23.352;2023-04-06T11:15:01;94350.94;;;8.22;42.44
41078;BME280;26823;42.662;23.352;2023-04-06T11:17:30;94352.81;;;8.87;40.23
41078;BME280;26823;42.662;23.352;2023-04-06T11:19:56;94349.94;;;7.92;41.12
41078;BME280;26823;42.662;23.352;2023-04-06T11:22:22;94339.50;;;7.18;42.92
41078;BME280;26823;42.662;23.352;2023-04-06T11:24:48;94349.69;;;7.78;43.12
41078;BME280;26823;42.662;23.352;2023-04-06T11:27:14;94360.13;;;8.06;41.49
41078;BME280;26823;42.662;23.352;2023-04-06T11:29:41;94342.38;;;7.99;43.81
41078;BME280;26823;42.662;23.352;2023-04-06T11:32:07;94335.47;;;7.42;43.38
41078;BME280;26823;42.662;23.352;2023-04-06T11:34:38;94339.16;;;7.92;42.97
41078;BME280;26823;42.662;23.352;2023-04-06T11:37:09;94341.91;;;6.99;42.88
41078;BME280;26823;42.662;23.352;2023-04-06T11:39:39;94337.63;;;7.24;44.13
41078;BME280;26823;42.662;23.352;2023-04-06T11:42:06;94316.53;;;6.33;44.02
41078;BME280;26823;42.662;23.352;2023-04-06T11:47:02;94331.16;;;7.15;44.45
41078;BME280;26823;42.662;23.352;2023-04-06T11:49:28;94333.59;;;7.22;45.18
41078;BME280;26823;42.662;23.352;2023-04-06T11:51:55;94326.03;;;6.98;44.81
41078;BME280;26823;42.662;23.352;2023-04-06T11:56:55;94327.66;;;6.99;46.21
41078;BME280;26823;42.662;23.352;2023-04-06T11:59:21;94303.16;;;6.75;44.86
41078;BME280;26823;42.662;23.352;2023-04-06T12:01:48;94324.38;;;6.76;45.87
41078;BME280;26823;42.662;23.352;2023-04-06T12:04:13;94336.25;;;6.80;44.70
41078;BME280;26823;42.662;23.352;2023-04-06T12:06:39;94323.41;;;6.14;47.77
41078;BME280;26823;42.662;23.352;2023-04-06T12:09:05;94331.59;;;6.45;46.22
41078;BME280;26823;42.662;23.352;2023-04-06T12:11:30;94324.09;;;5.94;46.00
41078;BME280;26823;42.662;23.352;2023-04-06T12:13:56;94327.69;;;6.04;46.67
41078;BME280;26823;42.662;23.352;2023-04-06T12:16:21;94312.16;;;6.17;46.59
41078;BME280;26823;42.662;23.352;2023-04-06T12:18:47;94320.72;;;6.14;46.95
41078;BME280;26823;42.662;23.352;2023-04-06T12:21:12;94324.91;;;5.89;47.60
41078;BME280;26823;42.662;23.352;2023-04-06T12:23:37;94327.72;;;5.67;49.38
41078;BME280;26823;42.662;23.352;2023-04-06T12:26:03;94315.75;;;5.90;48.49
41078;BME280;26823;42.662;23.352;2023-04-06T12:28:28;94297.72;;;5.75;47.47
41078;BME280;26823;42.662;23.352;2023-04-06T12:31:01;94328.63;;;5.83;47.62
41078;BME280;26823;42.662;23.352;2023-04-06T12:33:27;94323.63;;;5.54;48.80
41078;BME280;26823;42.662;23.352;2023-04-06T12:35:52;94316.31;;;5.44;49.05
41078;BME280;26823;42.662;23.352;2023-04-06T12:38:17;94315.41;;;5.28;49.50
41078;BME280;26823;42.662;23.352;2023-04-06T12:40:43;94321.34;;;5.35;50.07
41078;BME280;26823;42.662;23.352;2023-04-06T12:43:08;94313.97;;;5.58;49.40
41078;BME280;26823;42.662;23.352;2023-04-06T12:45:34;94306.34;;;5.39;50.50
41078;BME280;26823;42.662;23.352;2023-04-06T12:48:00;94302.00;;;5.28;48.58
41078;BME280;26823;42.662;23.352;2023-04-06T12:50:25;94310.44;;;5.47;49.02
41078;BME280;26823;42.662;23.352;2023-04-06T12:52:51;94286.53;;;5.46;48.96
41078;BME280;26823;42.662;23.352;2023-04-06T12:55:17;94305.78;;;5.32;48.96
41078;BME280;26823;42.662;23.352;2023-04-06T12:57:42;94305.00;;;5.42;48.66
41078;BME280;26823;42.662;23.352;2023-04-06T13:00:08;94306.22;;;5.62;47.83
41078;BME280;26823;42.662;23.352;2023-04-06T13:02:34;94296.06;;;5.64;49.14
41078;BME280;26823;42.662;23.352;2023-04-06T13:04:59;94302.00;;;5.28;49.49